sensor_id;sensor_type;location;lat;lon;timestamp;temperature;humidity
9393;DHT22;4736;52.508;13.422;2022-09-09T00:02:29;15.50;1.00
9393;DHT22;4736;52.508;13.422;2022-09-09T00:05:38;15.50;1.00
9393;DHT22;4736;52.508;13.422;2022-09-09T00:08:53;15.40;1.00
9393;DHT22;4736;52.508;13.422;2022-09-09T00:12:02;15.40;1.00
9393;DHT22;4736;52.508;13.422;2022-09-09T00:15:11;15.30;1.00
9393;DHT22;4736;52.508;13.422;2022-09-09T00:18:24;15.40;1.00
9393;DHT22;4736;52.508;13.422;2022-09-09T00:21:33;15.40;1.00
9393;DHT22;4736;52.508;13.422;2022-09-09T00:24:40;15.40;1.00
9393;DHT22;4736;52.508;13.422;2022-09-09T00:27:45;15.30;1.00
9393;DHT22;4736;52.508;13.422;2022-09-09T00:30:49;15.30;1.00
9393;DHT22;4736;52.508;13.422;2022-09-09T00:33:54;15.30;1.00
9393;DHT22;4736;52.508;13.422;2022-09-09T00:37:03;15.30;1.00
9393;DHT22;4736;52.508;13.422;2022-09-09T00:40:18;15.20;1.00
9393;DHT22;4736;52.508;13.422;2022-09-09T00:43:27;15.20;1.00
9393;DHT22;4736;52.508;13.422;2022-09-09T00:46:53;15.10;1.00
9393;DHT22;4736;52.508;13.422;2022-09-09T00:50:08;15.10;1.00
9393;DHT22;4736;52.508;13.422;2022-09-09T00:53:24;15.10;1.00
9393;DHT22;4736;52.508;13.422;2022-09-09T00:56:34;15.10;1.00
9393;DHT22;4736;52.508;13.422;2022-09-09T00:59:47;15.00;1.00
9393;DHT22;4736;52.508;13.422;2022-09-09T01:03:14;15.00;1.00
9393;DHT22;4736;52.508;13.422;2022-09-09T01:06:35;15.00;1.00
9393;DHT22;4736;52.508;13.422;2022-09-09T01:09:50;15.00;1.00
9393;DHT22;4736;52.508;13.422;2022-09-09T01:12:56;15.00;1.00
9393;DHT22;4736;52.508;13.422;2022-09-09T01:16:03;15.00;1.00
9393;DHT22;4736;52.508;13.422;2022-09-09T01:19:13;14.90;1.00
9393;DHT22;4736;52.508;13.422;2022-09-09T01:22:26;14.90;1.00
9393;DHT22;4736;52.508;13.422;2022-09-09T01:29:15;14.90;1.00
9393;DHT22;4736;52.508;13.422;2022-09-09T01:32:41;14.90;1.00
9393;DHT22;4736;52.508;13.422;2022-09-09T01:35:48;14.90;1.00
9393;DHT22;4736;52.508;13.422;2022-09-09T01:38:53;14.80;1.00
9393;DHT22;4736;52.508;13.422;2022-09-09T01:41:56;14.80;1.00
9393;DHT22;4736;52.508;13.422;2022-09-09T01:45:01;14.80;1.00
9393;DHT22;4736;52.508;13.422;2022-09-09T01:48:04;14.80;1.00
9393;DHT22;4736;52.508;13.422;2022-09-09T01:51:08;14.80;1.00
9393;DHT22;4736;52.508;13.422;2022-09-09T01:54:12;14.80;1.00
9393;DHT22;4736;52.508;13.422;2022-09-09T01:57:19;14.80;1.00
9393;DHT22;4736;52.508;13.422;2022-09-09T02:00:25;14.70;1.00
9393;DHT22;4736;52.508;13.422;2022-09-09T02:03:30;14.70;1.00
9393;DHT22;4736;52.508;13.422;2022-09-09T02:06:36;14.70;1.00
9393;DHT22;4736;52.508;13.422;2022-09-09T02:09:47;14.70;1.00
9393;DHT22;4736;52.508;13.422;2022-09-09T02:12:55;14.70;1.00
9393;DHT22;4736;52.508;13.422;2022-09-09T02:16:07;14.70;1.00
9393;DHT22;4736;52.508;13.422;2022-09-09T02:19:13;14.70;1.00
9393;DHT22;4736;52.508;13.422;2022-09-09T02:22:20;14.60;1.00
9393;DHT22;4736;52.508;13.422;2022-09-09T02:25:26;14.60;1.00
9393;DHT22;4736;52.508;13.422;2022-09-09T02:28:32;14.60;1.00
9393;DHT22;4736;52.508;13.422;2022-09-09T02:31:38;14.60;1.00
9393;DHT22;4736;52.508;13.422;2022-09-09T02:34:44;14.60;1.00
9393;DHT22;4736;52.508;13.422;2022-09-09T02:37:51;14.60;1.00
9393;DHT22;4736;52.508;13.422;2022-09-09T02:40:56;14.50;1.00
9393;DHT22;4736;52.508;13.422;2022-09-09T02:44:00;14.50;1.00
9393;DHT22;4736;52.508;13.422;2022-09-09T02:47:16;14.50;1.00
9393;DHT22;4736;52.508;13.422;2022-09-09T02:50:29;14.40;1.00
9393;DHT22;4736;52.508;13.422;2022-09-09T02:53:42;14.40;1.00
9393;DHT22;4736;52.508;13.422;2022-09-09T02:56:51;14.40;1.00
9393;DHT22;4736;52.508;13.422;2022-09-09T02:59:57;14.40;1.00
9393;DHT22;4736;52.508;13.422;2022-09-09T03:03:02;14.40;1.00
9393;DHT22;4736;52.508;13.422;2022-09-09T03:06:05;14.30;1.00
9393;DHT22;4736;52.508;13.422;2022-09-09T03:09:08;14.40;1.00
9393;DHT22;4736;52.508;13.422;2022-09-09T03:12:12;14.30;1.00
9393;DHT22;4736;52.508;13.422;2022-09-09T03:15:16;14.30;1.00
9393;DHT22;4736;52.508;13.422;2022-09-09T03:18:20;14.30;1.00
9393;DHT22;4736;52.508;13.422;2022-09-09T03:21:23;14.40;1.00
9393;DHT22;4736;52.508;13.422;2022-09-09T03:24:26;14.30;1.00
9393;DHT22;4736;52.508;13.422;2022-09-09T03:27:29;14.30;1.00
9393;DHT22;4736;52.508;13.422;2022-09-09T03:30:32;14.30;1.00
9393;DHT22;4736;52.508;13.422;2022-09-09T03:33:37;14.30;1.00
9393;DHT22;4736;52.508;13.422;2022-09-09T03:36:40;14.20;1.00
9393;DHT22;4736;52.508;13.422;2022-09-09T03:39:50;14.20;1.00
9393;DHT22;4736;52.508;13.422;2022-09-09T03:42:57;14.20;1.00
9393;DHT22;4736;52.508;13.422;2022-09-09T03:46:00;14.10;1.00
9393;DHT22;4736;52.508;13.422;2022-09-09T03:49:04;14.10;1.00
9393;DHT22;4736;52.508;13.422;2022-09-09T03:52:08;14.10;1.00
9393;DHT22;4736;52.508;13.422;2022-09-09T03:55:14;14.10;1.00
9393;DHT22;4736;52.508;13.422;2022-09-09T03:58:17;14.10;1.00
9393;DHT22;4736;52.508;13.422;2022-09-09T04:01:20;14.10;1.00
9393;DHT22;4736;52.508;13.422;2022-09-09T04:04:25;14.00;1.00
9393;DHT22;4736;52.508;13.422;2022-09-09T04:07:28;14.00;1.00
9393;DHT22;4736;52.508;13.422;2022-09-09T04:10:31;14.00;1.00
9393;DHT22;4736;52.508;13.422;2022-09-09T04:13:35;14.00;1.00
9393;DHT22;4736;52.508;13.422;2022-09-09T04:16:39;13.90;1.00
9393;DHT22;4736;52.508;13.422;2022-09-09T04:19:47;13.90;1.00
9393;DHT22;4736;52.508;13.422;2022-09-09T04:22:50;13.90;1.00
9393;DHT22;4736;52.508;13.422;2022-09-09T04:25:54;13.90;1.00
9393;DHT22;4736;52.508;13.422;2022-09-09T04:28:57;13.90;1.00
9393;DHT22;4736;52.508;13.422;2022-09-09T04:32:02;13.80;1.00
9393;DHT22;4736;52.508;13.422;2022-09-09T04:35:07;13.90;1.00
9393;DHT22;4736;52.508;13.422;2022-09-09T04:38:13;13.80;1.00
9393;DHT22;4736;52.508;13.422;2022-09-09T04:41:19;13.80;1.00
9393;DHT22;4736;52.508;13.422;2022-09-09T04:44:22;13.80;1.00
9393;DHT22;4736;52.508;13.422;2022-09-09T04:47:26;13.80;1.00
9393;DHT22;4736;52.508;13.422;2022-09-09T04:50:31;13.90;1.00
9393;DHT22;4736;52.508;13.422;2022-09-09T04:53:34;13.90;1.00
9393;DHT22;4736;52.508;13.422;2022-09-09T04:56:37;13.90;1.00
9393;DHT22;4736;52.508;13.422;2022-09-09T04:59:40;13.90;1.00
9393;DHT22;4736;52.508;13.422;2022-09-09T05:02:43;14.00;1.00
9393;DHT22;4736;52.508;13.422;2022-09-09T05:05:47;14.10;1.00
9393;DHT22;4736;52.508;13.422;2022-09-09T05:08:50;14.10;1.00
9393;DHT22;4736;52.508;13.422;2022-09-09T05:11:53;14.10;1.00
9393;DHT22;4736;52.508;13.422;2022-09-09T05:14:57;14.10;1.00
9393;DHT22;4736;52.508;13.422;2022-09-09T05:18:01;14.20;1.00
9393;DHT22;4736;52.508;13.422;2022-09-09T05:21:06;14.20;1.00
9393;DHT22;4736;52.508;13.422;2022-09-09T05:24:09;14.30;1.00
9393;DHT22;4736;52.508;13.422;2022-09-09T05:27:13;14.40;1.00
9393;DHT22;4736;52.508;13.422;2022-09-09T05:30:16;14.50;1.00
9393;DHT22;4736;52.508;13.422;2022-09-09T05:33:20;14.50;1.00
9393;DHT22;4736;52.508;13.422;2022-09-09T05:36:25;14.60;1.00
9393;DHT22;4736;52.508;13.422;2022-09-09T05:39:28;14.60;1.00
9393;DHT22;4736;52.508;13.422;2022-09-09T05:42:31;14.70;1.00
9393;DHT22;4736;52.508;13.422;2022-09-09T05:45:34;14.70;1.00
9393;DHT22;4736;52.508;13.422;2022-09-09T05:48:38;14.80;1.00
9393;DHT22;4736;52.508;13.422;2022-09-09T05:51:43;14.80;1.00
9393;DHT22;4736;52.508;13.422;2022-09-09T05:54:46;14.90;1.00
9393;DHT22;4736;52.508;13.422;2022-09-09T05:57:50;14.90;1.00
9393;DHT22;4736;52.508;13.422;2022-09-09T06:01:01;15.00;1.00
9393;DHT22;4736;52.508;13.422;2022-09-09T06:04:04;15.10;1.00
9393;DHT22;4736;52.508;13.422;2022-09-09T06:07:09;15.20;1.00
9393;DHT22;4736;52.508;13.422;2022-09-09T06:10:12;15.30;1.00
9393;DHT22;4736;52.508;13.422;2022-09-09T06:13:15;15.40;1.00
9393;DHT22;4736;52.508;13.422;2022-09-09T06:16:21;15.50;1.00
9393;DHT22;4736;52.508;13.422;2022-09-09T06:19:25;15.70;1.00
9393;DHT22;4736;52.508;13.422;2022-09-09T06:22:29;16.20;1.00
9393;DHT22;4736;52.508;13.422;2022-09-09T06:25:33;16.40;1.00
9393;DHT22;4736;52.508;13.422;2022-09-09T06:28:36;16.50;1.00
9393;DHT22;4736;52.508;13.422;2022-09-09T06:31:39;16.60;1.00
9393;DHT22;4736;52.508;13.422;2022-09-09T06:34:43;16.60;1.00
9393;DHT22;4736;52.508;13.422;2022-09-09T06:37:48;16.60;1.00
9393;DHT22;4736;52.508;13.422;2022-09-09T06:40:52;16.60;1.00
9393;DHT22;4736;52.508;13.422;2022-09-09T06:43:56;16.40;1.00
9393;DHT22;4736;52.508;13.422;2022-09-09T06:46:59;16.40;1.00
9393;DHT22;4736;52.508;13.422;2022-09-09T06:50:02;16.30;1.00
9393;DHT22;4736;52.508;13.422;2022-09-09T06:53:08;16.20;1.00
9393;DHT22;4736;52.508;13.422;2022-09-09T06:56:20;16.30;1.00
9393;DHT22;4736;52.508;13.422;2022-09-09T06:59:23;16.30;1.00
9393;DHT22;4736;52.508;13.422;2022-09-09T07:02:26;16.60;1.00
9393;DHT22;4736;52.508;13.422;2022-09-09T07:05:30;17.00;1.00
9393;DHT22;4736;52.508;13.422;2022-09-09T07:08:34;17.10;1.00
9393;DHT22;4736;52.508;13.422;2022-09-09T07:11:38;17.30;1.00
9393;DHT22;4736;52.508;13.422;2022-09-09T07:14:42;17.30;1.00
9393;DHT22;4736;52.508;13.422;2022-09-09T07:17:46;17.30;1.00
9393;DHT22;4736;52.508;13.422;2022-09-09T07:20:53;17.30;1.00
9393;DHT22;4736;52.508;13.422;2022-09-09T07:24:00;17.40;1.00
9393;DHT22;4736;52.508;13.422;2022-09-09T07:27:03;17.50;1.00
9393;DHT22;4736;52.508;13.422;2022-09-09T07:30:09;17.60;1.00
9393;DHT22;4736;52.508;13.422;2022-09-09T07:33:18;17.50;1.00
9393;DHT22;4736;52.508;13.422;2022-09-09T07:36:23;17.60;1.00
9393;DHT22;4736;52.508;13.422;2022-09-09T07:39:35;17.80;1.00
9393;DHT22;4736;52.508;13.422;2022-09-09T07:42:38;17.90;1.00
9393;DHT22;4736;52.508;13.422;2022-09-09T07:45:41;18.10;1.00
9393;DHT22;4736;52.508;13.422;2022-09-09T07:48:45;18.30;1.00
9393;DHT22;4736;52.508;13.422;2022-09-09T07:51:48;18.50;1.00
9393;DHT22;4736;52.508;13.422;2022-09-09T07:54:52;18.70;1.00
9393;DHT22;4736;52.508;13.422;2022-09-09T07:58:08;18.70;1.00
9393;DHT22;4736;52.508;13.422;2022-09-09T08:01:19;18.80;1.00
9393;DHT22;4736;52.508;13.422;2022-09-09T08:04:24;18.90;1.00
9393;DHT22;4736;52.508;13.422;2022-09-09T08:07:27;19.00;1.00
9393;DHT22;4736;52.508;13.422;2022-09-09T08:10:32;19.10;1.00
9393;DHT22;4736;52.508;13.422;2022-09-09T08:13:35;19.10;1.00
9393;DHT22;4736;52.508;13.422;2022-09-09T08:16:41;19.20;1.00
9393;DHT22;4736;52.508;13.422;2022-09-09T08:19:54;19.20;1.00
9393;DHT22;4736;52.508;13.422;2022-09-09T08:22:56;19.20;1.00
9393;DHT22;4736;52.508;13.422;2022-09-09T08:26:06;19.00;1.00
9393;DHT22;4736;52.508;13.422;2022-09-09T08:29:12;19.00;1.00
9393;DHT22;4736;52.508;13.422;2022-09-09T08:32:15;19.00;1.00
9393;DHT22;4736;52.508;13.422;2022-09-09T08:35:20;18.90;1.00
9393;DHT22;4736;52.508;13.422;2022-09-09T08:38:23;18.90;1.00
9393;DHT22;4736;52.508;13.422;2022-09-09T08:45:28;19.00;1.00
9393;DHT22;4736;52.508;13.422;2022-09-09T08:48:44;18.90;1.00
9393;DHT22;4736;52.508;13.422;2022-09-09T08:51:49;18.90;1.00
9393;DHT22;4736;52.508;13.422;2022-09-09T08:54:55;18.90;1.00
9393;DHT22;4736;52.508;13.422;2022-09-09T08:58:06;19.00;1.00
9393;DHT22;4736;52.508;13.422;2022-09-09T09:04:56;18.90;1.00
9393;DHT22;4736;52.508;13.422;2022-09-09T09:08:07;19.10;1.00
9393;DHT22;4736;52.508;13.422;2022-09-09T09:11:13;19.20;1.00
9393;DHT22;4736;52.508;13.422;2022-09-09T09:14:20;19.50;1.00
9393;DHT22;4736;52.508;13.422;2022-09-09T09:17:28;19.80;1.00
9393;DHT22;4736;52.508;13.422;2022-09-09T09:20:40;20.10;1.00
9393;DHT22;4736;52.508;13.422;2022-09-09T09:23:52;20.20;1.00
9393;DHT22;4736;52.508;13.422;2022-09-09T09:26:57;20.40;1.00
9393;DHT22;4736;52.508;13.422;2022-09-09T09:30:12;20.30;1.00
9393;DHT22;4736;52.508;13.422;2022-09-09T09:33:33;20.60;1.00
9393;DHT22;4736;52.508;13.422;2022-09-09T09:36:42;20.80;1.00
9393;DHT22;4736;52.508;13.422;2022-09-09T09:39:46;21.00;1.00
9393;DHT22;4736;52.508;13.422;2022-09-09T09:43:05;21.20;1.00
9393;DHT22;4736;52.508;13.422;2022-09-09T09:46:20;21.30;1.00
9393;DHT22;4736;52.508;13.422;2022-09-09T09:49:25;21.20;1.00
9393;DHT22;4736;52.508;13.422;2022-09-09T09:52:29;21.10;1.00
9393;DHT22;4736;52.508;13.422;2022-09-09T09:55:35;21.20;1.00
9393;DHT22;4736;52.508;13.422;2022-09-09T09:58:49;21.20;1.00
9393;DHT22;4736;52.508;13.422;2022-09-09T10:02:14;21.20;1.00
9393;DHT22;4736;52.508;13.422;2022-09-09T10:05:21;21.30;1.00
9393;DHT22;4736;52.508;13.422;2022-09-09T10:08:28;21.40;1.00
9393;DHT22;4736;52.508;13.422;2022-09-09T10:11:44;21.40;1.00
9393;DHT22;4736;52.508;13.422;2022-09-09T10:14:55;21.40;1.00
9393;DHT22;4736;52.508;13.422;2022-09-09T10:18:22;21.40;1.00
9393;DHT22;4736;52.508;13.422;2022-09-09T10:21:49;21.50;1.00
9393;DHT22;4736;52.508;13.422;2022-09-09T10:25:25;21.60;1.00
9393;DHT22;4736;52.508;13.422;2022-09-09T10:28:42;21.80;1.00
9393;DHT22;4736;52.508;13.422;2022-09-09T10:31:55;21.80;1.00
9393;DHT22;4736;52.508;13.422;2022-09-09T10:35:04;21.90;1.00
9393;DHT22;4736;52.508;13.422;2022-09-09T10:38:16;21.90;1.00
9393;DHT22;4736;52.508;13.422;2022-09-09T10:41:24;21.80;1.00
9393;DHT22;4736;52.508;13.422;2022-09-09T10:44:45;21.80;1.00
9393;DHT22;4736;52.508;13.422;2022-09-09T10:48:15;21.90;1.00
9393;DHT22;4736;52.508;13.422;2022-09-09T10:51:30;21.90;1.00
9393;DHT22;4736;52.508;13.422;2022-09-09T10:54:47;21.80;1.00
9393;DHT22;4736;52.508;13.422;2022-09-09T10:57:54;22.00;1.00
9393;DHT22;4736;52.508;13.422;2022-09-09T11:01:05;22.20;1.00
9393;DHT22;4736;52.508;13.422;2022-09-09T11:04:17;22.50;1.00
9393;DHT22;4736;52.508;13.422;2022-09-09T11:07:33;22.50;1.00
9393;DHT22;4736;52.508;13.422;2022-09-09T11:10:40;22.70;1.00
9393;DHT22;4736;52.508;13.422;2022-09-09T11:13:49;22.60;1.00
9393;DHT22;4736;52.508;13.422;2022-09-09T11:16:58;22.80;1.00
9393;DHT22;4736;52.508;13.422;2022-09-09T11:20:05;22.90;1.00
9393;DHT22;4736;52.508;13.422;2022-09-09T11:23:13;22.90;1.00
9393;DHT22;4736;52.508;13.422;2022-09-09T11:26:23;22.80;1.00
9393;DHT22;4736;52.508;13.422;2022-09-09T11:30:03;22.70;1.00
9393;DHT22;4736;52.508;13.422;2022-09-09T11:33:36;22.60;1.00
9393;DHT22;4736;52.508;13.422;2022-09-09T11:37:00;22.60;1.00
9393;DHT22;4736;52.508;13.422;2022-09-09T11:40:20;22.50;1.00
9393;DHT22;4736;52.508;13.422;2022-09-09T11:43:28;22.40;1.00
9393;DHT22;4736;52.508;13.422;2022-09-09T11:46:35;22.40;1.00
9393;DHT22;4736;52.508;13.422;2022-09-09T11:49:42;22.60;1.00
9393;DHT22;4736;52.508;13.422;2022-09-09T11:52:50;22.90;1.00
9393;DHT22;4736;52.508;13.422;2022-09-09T11:56:12;22.90;1.00
9393;DHT22;4736;52.508;13.422;2022-09-09T11:59:21;22.90;1.00
9393;DHT22;4736;52.508;13.422;2022-09-09T12:02:26;22.80;1.00
9393;DHT22;4736;52.508;13.422;2022-09-09T12:05:37;22.90;1.00
9393;DHT22;4736;52.508;13.422;2022-09-09T12:08:46;23.00;1.00
9393;DHT22;4736;52.508;13.422;2022-09-09T12:11:52;23.30;1.00
9393;DHT22;4736;52.508;13.422;2022-09-09T12:14:58;23.50;1.00
9393;DHT22;4736;52.508;13.422;2022-09-09T12:18:02;23.80;1.00
9393;DHT22;4736;52.508;13.422;2022-09-09T12:21:17;23.80;1.00
9393;DHT22;4736;52.508;13.422;2022-09-09T12:24:29;23.90;1.00
9393;DHT22;4736;52.508;13.422;2022-09-09T12:27:46;24.00;1.00
9393;DHT22;4736;52.508;13.422;2022-09-09T12:30:58;24.10;1.00
9393;DHT22;4736;52.508;13.422;2022-09-09T12:34:10;24.00;1.00
9393;DHT22;4736;52.508;13.422;2022-09-09T12:37:17;24.00;1.00
9393;DHT22;4736;52.508;13.422;2022-09-09T12:40:24;23.80;1.00
9393;DHT22;4736;52.508;13.422;2022-09-09T12:43:29;23.60;1.00
9393;DHT22;4736;52.508;13.422;2022-09-09T12:46:35;23.50;1.00
9393;DHT22;4736;52.508;13.422;2022-09-09T12:49:39;23.40;1.00
9393;DHT22;4736;52.508;13.422;2022-09-09T12:52:43;23.40;1.00
9393;DHT22;4736;52.508;13.422;2022-09-09T12:55:50;23.30;1.00
9393;DHT22;4736;52.508;13.422;2022-09-09T12:58:57;23.30;1.00
9393;DHT22;4736;52.508;13.422;2022-09-09T13:02:00;23.30;1.00
9393;DHT22;4736;52.508;13.422;2022-09-09T13:05:14;23.00;1.00
9393;DHT22;4736;52.508;13.422;2022-09-09T13:08:18;23.00;1.00
9393;DHT22;4736;52.508;13.422;2022-09-09T13:11:25;23.00;1.00
9393;DHT22;4736;52.508;13.422;2022-09-09T13:14:33;23.00;1.00
9393;DHT22;4736;52.508;13.422;2022-09-09T13:17:41;23.00;1.00
9393;DHT22;4736;52.508;13.422;2022-09-09T13:20:47;23.00;1.00
9393;DHT22;4736;52.508;13.422;2022-09-09T13:23:51;23.00;1.00
9393;DHT22;4736;52.508;13.422;2022-09-09T13:26:55;22.90;1.00
9393;DHT22;4736;52.508;13.422;2022-09-09T13:30:00;22.80;1.00
9393;DHT22;4736;52.508;13.422;2022-09-09T13:33:06;22.70;1.00
9393;DHT22;4736;52.508;13.422;2022-09-09T13:36:29;22.70;1.00
9393;DHT22;4736;52.508;13.422;2022-09-09T13:39:35;22.70;1.00
9393;DHT22;4736;52.508;13.422;2022-09-09T13:42:40;22.80;1.00
9393;DHT22;4736;52.508;13.422;2022-09-09T13:45:53;22.90;1.00
9393;DHT22;4736;52.508;13.422;2022-09-09T13:48:59;23.20;1.00
9393;DHT22;4736;52.508;13.422;2022-09-09T13:52:09;23.50;1.00
9393;DHT22;4736;52.508;13.422;2022-09-09T13:55:13;23.60;1.00
9393;DHT22;4736;52.508;13.422;2022-09-09T13:58:17;23.80;1.00
9393;DHT22;4736;52.508;13.422;2022-09-09T14:01:22;23.80;1.00
9393;DHT22;4736;52.508;13.422;2022-09-09T14:04:30;23.90;1.00
9393;DHT22;4736;52.508;13.422;2022-09-09T14:07:33;23.80;1.00
9393;DHT22;4736;52.508;13.422;2022-09-09T14:10:36;23.80;1.00
9393;DHT22;4736;52.508;13.422;2022-09-09T14:13:39;23.90;1.00
9393;DHT22;4736;52.508;13.422;2022-09-09T14:16:43;23.90;1.00
9393;DHT22;4736;52.508;13.422;2022-09-09T14:19:47;23.80;1.00
9393;DHT22;4736;52.508;13.422;2022-09-09T14:22:49;23.80;1.00
9393;DHT22;4736;52.508;13.422;2022-09-09T14:25:52;24.00;1.00
9393;DHT22;4736;52.508;13.422;2022-09-09T14:28:55;24.30;1.00
9393;DHT22;4736;52.508;13.422;2022-09-09T14:32:05;24.40;1.00
9393;DHT22;4736;52.508;13.422;2022-09-09T14:35:13;24.60;1.00
9393;DHT22;4736;52.508;13.422;2022-09-09T14:38:16;24.60;1.00
9393;DHT22;4736;52.508;13.422;2022-09-09T14:41:20;24.70;1.00
9393;DHT22;4736;52.508;13.422;2022-09-09T14:44:24;24.50;1.00
9393;DHT22;4736;52.508;13.422;2022-09-09T14:47:28;24.10;1.00
9393;DHT22;4736;52.508;13.422;2022-09-09T14:50:33;23.90;1.00
9393;DHT22;4736;52.508;13.422;2022-09-09T14:53:42;23.70;1.00
9393;DHT22;4736;52.508;13.422;2022-09-09T14:56:45;23.40;1.00
9393;DHT22;4736;52.508;13.422;2022-09-09T14:59:49;23.20;1.00
9393;DHT22;4736;52.508;13.422;2022-09-09T15:02:54;23.10;1.00
9393;DHT22;4736;52.508;13.422;2022-09-09T15:05:58;22.80;1.00
9393;DHT22;4736;52.508;13.422;2022-09-09T15:09:01;22.80;1.00
9393;DHT22;4736;52.508;13.422;2022-09-09T15:12:04;22.70;1.00
9393;DHT22;4736;52.508;13.422;2022-09-09T15:15:08;22.70;1.00
9393;DHT22;4736;52.508;13.422;2022-09-09T15:18:14;22.50;1.00
9393;DHT22;4736;52.508;13.422;2022-09-09T15:21:19;22.70;1.00
9393;DHT22;4736;52.508;13.422;2022-09-09T15:24:21;22.80;1.00
9393;DHT22;4736;52.508;13.422;2022-09-09T15:27:24;23.00;1.00
9393;DHT22;4736;52.508;13.422;2022-09-09T15:30:27;23.20;1.00
9393;DHT22;4736;52.508;13.422;2022-09-09T15:33:33;23.30;1.00
9393;DHT22;4736;52.508;13.422;2022-09-09T15:36:39;23.20;1.00
9393;DHT22;4736;52.508;13.422;2022-09-09T15:39:44;23.10;1.00
9393;DHT22;4736;52.508;13.422;2022-09-09T15:42:49;23.00;1.00
9393;DHT22;4736;52.508;13.422;2022-09-09T15:45:57;22.90;1.00
9393;DHT22;4736;52.508;13.422;2022-09-09T15:49:06;22.80;1.00
9393;DHT22;4736;52.508;13.422;2022-09-09T15:52:10;22.70;1.00
9393;DHT22;4736;52.508;13.422;2022-09-09T15:55:13;22.50;1.00
9393;DHT22;4736;52.508;13.422;2022-09-09T15:58:16;22.40;1.00
9393;DHT22;4736;52.508;13.422;2022-09-09T16:01:19;22.30;1.00
9393;DHT22;4736;52.508;13.422;2022-09-09T16:04:24;22.30;1.00
9393;DHT22;4736;52.508;13.422;2022-09-09T16:07:27;22.20;1.00
9393;DHT22;4736;52.508;13.422;2022-09-09T16:10:30;22.20;1.00
9393;DHT22;4736;52.508;13.422;2022-09-09T16:13:33;22.10;1.00
9393;DHT22;4736;52.508;13.422;2022-09-09T16:16:37;22.10;1.00
9393;DHT22;4736;52.508;13.422;2022-09-09T16:19:41;22.20;1.00
9393;DHT22;4736;52.508;13.422;2022-09-09T16:22:44;22.20;1.00
9393;DHT22;4736;52.508;13.422;2022-09-09T16:25:53;22.20;1.00
9393;DHT22;4736;52.508;13.422;2022-09-09T16:29:00;22.20;1.00
9393;DHT22;4736;52.508;13.422;2022-09-09T16:32:04;22.20;1.00
9393;DHT22;4736;52.508;13.422;2022-09-09T16:35:10;22.10;1.00
9393;DHT22;4736;52.508;13.422;2022-09-09T16:38:15;22.00;1.00
9393;DHT22;4736;52.508;13.422;2022-09-09T16:41:18;21.90;1.00
9393;DHT22;4736;52.508;13.422;2022-09-09T16:44:21;21.80;1.00
9393;DHT22;4736;52.508;13.422;2022-09-09T16:47:24;21.80;1.00
9393;DHT22;4736;52.508;13.422;2022-09-09T16:50:30;21.70;1.00
9393;DHT22;4736;52.508;13.422;2022-09-09T16:53:34;21.70;1.00
9393;DHT22;4736;52.508;13.422;2022-09-09T16:56:41;21.60;1.00
9393;DHT22;4736;52.508;13.422;2022-09-09T16:59:44;21.50;1.00
9393;DHT22;4736;52.508;13.422;2022-09-09T17:02:47;21.50;1.00
9393;DHT22;4736;52.508;13.422;2022-09-09T17:05:52;21.40;1.00
9393;DHT22;4736;52.508;13.422;2022-09-09T17:08:59;21.30;1.00
9393;DHT22;4736;52.508;13.422;2022-09-09T17:12:03;21.20;1.00
9393;DHT22;4736;52.508;13.422;2022-09-09T17:15:07;21.10;1.00
9393;DHT22;4736;52.508;13.422;2022-09-09T17:18:16;21.00;1.00
9393;DHT22;4736;52.508;13.422;2022-09-09T17:21:22;20.80;1.00
9393;DHT22;4736;52.508;13.422;2022-09-09T17:24:27;20.80;1.00
9393;DHT22;4736;52.508;13.422;2022-09-09T17:27:30;20.70;1.00
9393;DHT22;4736;52.508;13.422;2022-09-09T17:30:35;20.60;1.00
9393;DHT22;4736;52.508;13.422;2022-09-09T17:33:44;20.50;1.00
9393;DHT22;4736;52.508;13.422;2022-09-09T17:36:48;20.40;1.00
9393;DHT22;4736;52.508;13.422;2022-09-09T17:39:55;20.20;1.00
9393;DHT22;4736;52.508;13.422;2022-09-09T17:43:00;20.10;1.00
9393;DHT22;4736;52.508;13.422;2022-09-09T17:46:07;20.00;1.00
9393;DHT22;4736;52.508;13.422;2022-09-09T17:49:12;19.90;1.00
9393;DHT22;4736;52.508;13.422;2022-09-09T17:52:16;19.80;1.00
9393;DHT22;4736;52.508;13.422;2022-09-09T17:55:24;19.70;1.00
9393;DHT22;4736;52.508;13.422;2022-09-09T17:58:26;19.60;1.00
9393;DHT22;4736;52.508;13.422;2022-09-09T18:01:32;19.40;1.00
9393;DHT22;4736;52.508;13.422;2022-09-09T18:04:46;19.40;1.00
9393;DHT22;4736;52.508;13.422;2022-09-09T18:07:50;19.30;1.00
9393;DHT22;4736;52.508;13.422;2022-09-09T18:10:54;19.20;1.00
9393;DHT22;4736;52.508;13.422;2022-09-09T18:13:59;19.20;1.00
9393;DHT22;4736;52.508;13.422;2022-09-09T18:17:03;19.10;1.00
9393;DHT22;4736;52.508;13.422;2022-09-09T18:20:06;19.00;1.00
9393;DHT22;4736;52.508;13.422;2022-09-09T18:23:11;18.80;1.00
9393;DHT22;4736;52.508;13.422;2022-09-09T18:26:17;18.80;1.00
9393;DHT22;4736;52.508;13.422;2022-09-09T18:29:21;18.60;1.00
9393;DHT22;4736;52.508;13.422;2022-09-09T18:32:25;18.60;1.00
9393;DHT22;4736;52.508;13.422;2022-09-09T18:35:29;18.50;1.00
9393;DHT22;4736;52.508;13.422;2022-09-09T18:38:33;18.40;1.00
9393;DHT22;4736;52.508;13.422;2022-09-09T18:41:40;18.30;1.00
9393;DHT22;4736;52.508;13.422;2022-09-09T18:44:43;18.30;1.00
9393;DHT22;4736;52.508;13.422;2022-09-09T18:47:46;18.20;1.00
9393;DHT22;4736;52.508;13.422;2022-09-09T18:50:50;18.10;1.00
9393;DHT22;4736;52.508;13.422;2022-09-09T18:53:57;18.10;1.00
9393;DHT22;4736;52.508;13.422;2022-09-09T18:57:01;18.00;1.00
9393;DHT22;4736;52.508;13.422;2022-09-09T19:00:04;17.90;1.00
9393;DHT22;4736;52.508;13.422;2022-09-09T19:03:10;17.90;1.00
9393;DHT22;4736;52.508;13.422;2022-09-09T19:06:16;17.80;1.00
9393;DHT22;4736;52.508;13.422;2022-09-09T19:09:20;17.70;1.00
9393;DHT22;4736;52.508;13.422;2022-09-09T19:12:29;17.70;1.00
9393;DHT22;4736;52.508;13.422;2022-09-09T19:15:34;17.60;1.00
9393;DHT22;4736;52.508;13.422;2022-09-09T19:18:38;17.60;1.00
9393;DHT22;4736;52.508;13.422;2022-09-09T19:21:42;17.60;1.00
9393;DHT22;4736;52.508;13.422;2022-09-09T19:24:49;17.50;1.00
9393;DHT22;4736;52.508;13.422;2022-09-09T19:27:52;17.50;1.00
9393;DHT22;4736;52.508;13.422;2022-09-09T19:30:54;17.40;1.00
9393;DHT22;4736;52.508;13.422;2022-09-09T19:33:57;17.40;1.00
9393;DHT22;4736;52.508;13.422;2022-09-09T19:37:00;17.30;1.00
9393;DHT22;4736;52.508;13.422;2022-09-09T19:40:05;17.30;1.00
9393;DHT22;4736;52.508;13.422;2022-09-09T19:43:09;17.20;1.00
9393;DHT22;4736;52.508;13.422;2022-09-09T19:46:13;17.20;1.00
9393;DHT22;4736;52.508;13.422;2022-09-09T19:49:19;17.10;1.00
9393;DHT22;4736;52.508;13.422;2022-09-09T19:52:21;17.10;1.00
9393;DHT22;4736;52.508;13.422;2022-09-09T19:55:27;17.10;1.00
9393;DHT22;4736;52.508;13.422;2022-09-09T19:58:30;17.00;1.00
9393;DHT22;4736;52.508;13.422;2022-09-09T20:01:37;17.00;1.00
9393;DHT22;4736;52.508;13.422;2022-09-09T20:04:41;16.90;1.00
9393;DHT22;4736;52.508;13.422;2022-09-09T20:07:46;16.90;1.00
9393;DHT22;4736;52.508;13.422;2022-09-09T20:10:51;16.90;1.00
9393;DHT22;4736;52.508;13.422;2022-09-09T20:13:55;16.90;1.00
9393;DHT22;4736;52.508;13.422;2022-09-09T20:16:58;16.80;1.00
9393;DHT22;4736;52.508;13.422;2022-09-09T20:20:01;16.80;1.00
9393;DHT22;4736;52.508;13.422;2022-09-09T20:23:05;16.80;1.00
9393;DHT22;4736;52.508;13.422;2022-09-09T20:26:11;16.80;1.00
9393;DHT22;4736;52.508;13.422;2022-09-09T20:29:18;16.80;1.00
9393;DHT22;4736;52.508;13.422;2022-09-09T20:32:21;16.80;1.00